Time;durP1;ratioP1;P1;durP2;ratioP2;P2;SDS_P1;SDS_P2;PMS_P1;PMS_P2;Temp;Humidity;BMP_temperature;BMP_pressure;BME280_temperature;BME280_humidity;BME280_pressure;Samples;Min_cycle;Max_cycle;Signal;HPM_P1;HPM_P2
2022/02/20 00:00:55;;;;;;;20.33;11.57;;;11.30;99.90;;;;;;5031147;28;20056;-68
2022/02/20 00:04:00;;;;;;;35.92;12.00;;;11.40;99.90;;;;;;5030935;28;20041;-68
2022/02/20 00:07:04;;;;;;;21.00;10.65;;;11.40;99.90;;;;;;5030963;28;20040;-68
2022/02/20 00:10:08;;;;;;;26.83;14.32;;;11.40;99.90;;;;;;5030491;28;20052;-68
2022/02/20 00:13:12;;;;;;;25.08;12.13;;;11.40;99.90;;;;;;5030065;28;20036;-66
2022/02/20 00:16:16;;;;;;;22.42;10.68;;;11.50;99.90;;;;;;5030746;28;20044;-68
2022/02/20 00:19:21;;;;;;;30.85;11.73;;;11.50;99.90;;;;;;5030137;28;20040;-68
2022/02/20 00:22:25;;;;;;;16.73;8.93;;;11.50;99.90;;;;;;5030798;28;20040;-68
2022/02/20 00:25:31;;;;;;;22.58;11.13;;;11.50;99.90;;;;;;5030801;28;20041;-68
2022/02/20 00:28:36;;;;;;;19.85;10.10;;;11.60;99.90;;;;;;5029447;28;20504;-68
2022/02/20 00:31:40;;;;;;;22.48;8.65;;;11.60;99.90;;;;;;5030776;28;20040;-68
2022/02/20 00:34:44;;;;;;;18.73;9.77;;;11.70;99.90;;;;;;5030822;28;20040;-68
2022/02/20 00:37:50;;;;;;;20.58;9.10;;;11.70;99.90;;;;;;5030672;28;20052;-68
2022/02/20 00:40:54;;;;;;;23.13;9.40;;;11.70;99.90;;;;;;5030128;28;20064;-68
2022/02/20 00:43:59;;;;;;;24.13;8.68;;;11.60;99.90;;;;;;5030309;28;20044;-68
2022/02/20 00:47:03;;;;;;;25.17;9.57;;;11.60;99.90;;;;;;5030511;28;20056;-68
2022/02/20 00:50:09;;;;;;;24.10;9.40;;;11.60;99.90;;;;;;5029862;28;20048;-68
2022/02/20 00:53:14;;;;;;;15.45;8.52;;;11.60;99.90;;;;;;5030483;28;20045;-68
2022/02/20 00:56:18;;;;;;;18.27;9.23;;;11.60;99.90;;;;;;5030565;28;20590;-69
2022/02/20 00:59:22;;;;;;;22.42;10.90;;;11.60;99.90;;;;;;5029167;28;20049;-69
2022/02/20 01:02:27;;;;;;;16.40;8.88;;;11.60;99.90;;;;;;5029889;28;20045;-68
2022/02/20 01:05:31;;;;;;;20.63;9.02;;;11.60;99.90;;;;;;5031121;28;20482;-68
2022/02/20 01:08:35;;;;;;;18.30;8.23;;;11.60;99.90;;;;;;5029302;28;20116;-68
2022/02/20 01:11:39;;;;;;;18.02;7.80;;;11.60;99.90;;;;;;5031979;28;20503;-68
2022/02/20 01:14:46;;;;;;;22.50;8.43;;;11.60;99.90;;;;;;5029965;28;20041;-67
2022/02/20 01:17:51;;;;;;;20.27;9.38;;;11.60;99.90;;;;;;5030660;28;20479;-68
2022/02/20 01:20:55;;;;;;;17.67;8.73;;;11.60;99.90;;;;;;5029106;28;20060;-68
2022/02/20 01:23:59;;;;;;;25.25;11.65;;;11.50;99.90;;;;;;5030296;28;20040;-68
2022/02/20 01:27:04;;;;;;;26.45;14.55;;;11.50;99.90;;;;;;5030088;28;20397;-68
2022/02/20 01:30:09;;;;;;;22.30;11.30;;;11.40;99.90;;;;;;5029320;28;20046;-68
2022/02/20 01:33:13;;;;;;;20.90;9.90;;;11.40;99.90;;;;;;5029131;28;20040;-68
2022/02/20 01:36:17;;;;;;;18.02;8.95;;;11.50;99.90;;;;;;5030281;28;20049;-68
2022/02/20 01:39:24;;;;;;;20.55;8.40;;;11.50;99.90;;;;;;5028696;28;20048;-68
2022/02/20 01:42:29;;;;;;;17.30;8.77;;;11.40;99.90;;;;;;5033311;28;20037;-68
2022/02/20 01:45:33;;;;;;;18.52;8.25;;;11.40;99.90;;;;;;5033046;28;20048;-68
2022/02/20 01:48:38;;;;;;;24.55;9.77;;;11.40;99.90;;;;;;5032664;28;20052;-68
2022/02/20 01:51:44;;;;;;;20.42;8.65;;;11.40;99.90;;;;;;5033498;28;20044;-68
2022/02/20 01:54:49;;;;;;;16.95;8.90;;;11.40;99.90;;;;;;5033906;28;20048;-68
2022/02/20 01:57:55;;;;;;;23.83;11.05;;;11.30;99.90;;;;;;5032730;28;20044;-68
2022/02/20 02:01:18;;;;;;;20.73;9.60;;;11.30;99.90;;;;;;5032274;28;20041;-68
2022/02/20 02:04:37;;;;;;;22.42;9.05;;;11.30;99.90;;;;;;5032457;28;20109;-68
2022/02/20 02:07:46;;;;;;;25.52;10.85;;;11.20;99.90;;;;;;5032270;28;20052;-68
2022/02/20 02:11:12;;;;;;;20.25;10.23;;;11.20;99.90;;;;;;5031888;28;20048;-69
2022/02/20 02:14:52;;;;;;;19.65;10.23;;;11.20;99.90;;;;;;5033315;28;20587;-68
2022/02/20 02:18:21;;;;;;;22.63;9.80;;;11.20;99.90;;;;;;5031819;28;20053;-69
2022/02/20 02:21:49;;;;;;;31.10;12.35;;;11.30;99.90;;;;;;5036484;28;20107;-68
2022/02/20 02:25:05;;;;;;;19.58;9.02;;;11.30;99.90;;;;;;5032753;28;20052;-68
2022/02/20 02:28:22;;;;;;;22.05;8.75;;;11.30;99.90;;;;;;5031543;28;20040;-68
2022/02/20 02:31:32;;;;;;;25.77;8.90;;;11.30;99.90;;;;;;5032790;28;20504;-68
2022/02/20 02:34:38;;;;;;;15.85;9.13;;;11.30;99.90;;;;;;5032224;28;20404;-68
2022/02/20 02:37:42;;;;;;;20.52;10.48;;;11.30;99.90;;;;;;5032847;28;20045;-68
2022/02/20 02:40:46;;;;;;;22.85;9.82;;;11.20;99.90;;;;;;5031877;28;20496;-68
2022/02/20 02:43:51;;;;;;;16.98;9.20;;;11.20;99.90;;;;;;5032843;28;20052;-68
2022/02/20 02:46:55;;;;;;;15.20;7.72;;;11.20;99.90;;;;;;5032500;28;20060;-69
2022/02/20 02:49:59;;;;;;;25.33;8.00;;;11.30;99.90;;;;;;5031246;28;20499;-68
2022/02/20 02:53:05;;;;;;;15.20;7.30;;;11.40;99.90;;;;;;5031385;28;20048;-68
2022/02/20 02:56:09;;;;;;;20.05;7.43;;;11.40;99.90;;;;;;5031420;28;20044;-68
2022/02/20 02:59:14;;;;;;;16.45;7.07;;;11.50;99.90;;;;;;5031051;28;20048;-68
2022/02/20 03:02:18;;;;;;;14.88;6.93;;;11.40;99.90;;;;;;5031387;28;20048;-68
2022/02/20 03:05:21;;;;;;;20.65;7.15;;;11.50;99.90;;;;;;5031528;28;20049;-68
2022/02/20 03:08:28;;;;;;;12.23;6.10;;;11.40;99.90;;;;;;5031049;28;20049;-68
2022/02/20 03:11:33;;;;;;;13.10;6.35;;;11.40;99.90;;;;;;5030684;28;20060;-68
2022/02/20 03:14:37;;;;;;;16.15;6.32;;;11.40;99.90;;;;;;5031756;28;20052;-68
2022/02/20 03:17:44;;;;;;;14.88;7.68;;;11.40;99.90;;;;;;5031566;28;20048;-68
2022/02/20 03:20:49;;;;;;;18.25;7.47;;;11.40;99.90;;;;;;5032707;28;20528;-68
2022/02/20 03:23:53;;;;;;;16.75;8.60;;;11.30;99.90;;;;;;5031582;28;20385;-69
2022/02/20 03:26:57;;;;;;;12.63;6.80;;;11.20;99.90;;;;;;5031197;28;20048;-68
2022/02/20 03:30:09;;;;;;;17.58;7.97;;;11.10;99.90;;;;;;5030394;28;20056;-68
2022/02/20 03:33:19;;;;;;;19.20;7.95;;;11.00;99.90;;;;;;5031069;28;20522;-68
2022/02/20 03:36:26;;;;;;;20.20;8.30;;;11.00;99.90;;;;;;5030504;28;20056;-69
2022/02/20 03:39:30;;;;;;;17.25;8.15;;;11.00;99.90;;;;;;5030310;28;20041;-69
2022/02/20 03:42:34;;;;;;;17.23;8.18;;;11.10;99.90;;;;;;5030693;28;20041;-69
2022/02/20 03:45:43;;;;;;;15.88;7.68;;;11.10;99.90;;;;;;5030792;28;20044;-68
2022/02/20 03:48:46;;;;;;;19.92;9.35;;;11.10;99.90;;;;;;5030960;28;20498;-68
2022/02/20 03:52:04;;;;;;;20.98;10.90;;;11.10;99.90;;;;;;5019015;28;20040;-68
2022/02/20 03:55:19;;;;;;;27.45;10.25;;;11.00;99.90;;;;;;5030910;28;20041;-68
2022/02/20 03:58:26;;;;;;;25.33;10.27;;;10.90;99.90;;;;;;5030785;28;20048;-68
2022/02/20 04:01:31;;;;;;;27.65;12.07;;;10.90;99.90;;;;;;5030618;28;20060;-69
2022/02/20 04:04:37;;;;;;;21.05;10.52;;;10.90;99.90;;;;;;5030453;28;20044;-68
2022/02/20 04:07:45;;;;;;;18.10;10.15;;;10.90;99.90;;;;;;5030306;28;20048;-68
2022/02/20 04:10:50;;;;;;;23.48;10.35;;;10.90;99.90;;;;;;5030296;28;20068;-68
2022/02/20 04:14:20;;;;;;;19.08;10.38;;;10.90;99.90;;;;;;5030953;28;20117;-69
2022/02/20 04:17:46;;;;;;;24.80;11.40;;;10.90;99.90;;;;;;5031029;28;20490;-68
2022/02/20 04:20:50;;;;;;;23.38;11.75;;;10.90;99.90;;;;;;5030093;28;20044;-69
2022/02/20 04:23:55;;;;;;;24.27;12.50;;;10.90;99.90;;;;;;5030100;28;20048;-69
2022/02/20 04:26:59;;;;;;;19.88;11.25;;;10.90;99.90;;;;;;5029886;28;20056;-69
2022/02/20 04:30:19;;;;;;;18.67;11.82;;;10.90;99.90;;;;;;5029344;28;20040;-69
2022/02/20 04:33:30;;;;;;;25.23;12.43;;;10.90;99.90;;;;;;5030437;28;20108;-69
2022/02/20 04:36:38;;;;;;;23.55;11.43;;;10.90;99.90;;;;;;5029756;28;20045;-69
2022/02/20 04:39:46;;;;;;;21.15;12.02;;;10.90;99.90;;;;;;5029196;28;20041;-68
2022/02/20 04:42:51;;;;;;;24.15;11.88;;;10.90;99.90;;;;;;5029603;28;20040;-69
2022/02/20 04:45:56;;;;;;;18.73;11.77;;;11.00;99.90;;;;;;5029726;28;20036;-68
2022/02/20 04:49:05;;;;;;;18.17;11.15;;;11.00;99.90;;;;;;5018384;28;20060;-68
2022/02/20 04:52:27;;;;;;;24.50;11.13;;;11.00;99.90;;;;;;5030071;28;20400;-68
2022/02/20 04:55:38;;;;;;;23.30;11.73;;;11.00;99.90;;;;;;5029276;28;20037;-68
2022/02/20 04:58:43;;;;;;;24.77;12.13;;;11.00;99.90;;;;;;5029352;28;20044;-69
2022/02/20 05:02:07;;;;;;;28.83;12.07;;;10.90;99.90;;;;;;5029451;28;20504;-68
2022/02/20 05:05:22;;;;;;;22.17;11.27;;;10.80;99.90;;;;;;5029572;28;20052;-68
2022/02/20 05:08:26;;;;;;;20.70;12.15;;;10.70;99.90;;;;;;5028851;28;20044;-69
2022/02/20 05:11:30;;;;;;;21.08;11.57;;;10.70;99.90;;;;;;5030173;28;20052;-69
2022/02/20 05:14:38;;;;;;;24.55;11.25;;;10.70;99.90;;;;;;5028737;28;20044;-69
2022/02/20 05:18:03;;;;;;;20.25;11.32;;;10.70;99.90;;;;;;5029566;28;20048;-69
2022/02/20 05:21:07;;;;;;;24.50;12.27;;;10.50;99.90;;;;;;5029098;28;20057;-69
2022/02/20 05:24:12;;;;;;;22.70;12.13;;;10.40;99.90;;;;;;5029963;28;20127;-68
2022/02/20 05:27:18;;;;;;;27.33;14.00;;;10.40;99.90;;;;;;5029261;28;20056;-68
2022/02/20 05:30:26;;;;;;;24.40;12.77;;;10.30;99.90;;;;;;5028222;28;20076;-68
2022/02/20 05:33:42;;;;;;;21.95;11.25;;;10.30;99.90;;;;;;5029093;28;20056;-68
2022/02/20 05:36:46;;;;;;;23.98;11.50;;;10.30;99.90;;;;;;5029282;28;20040;-68
2022/02/20 05:39:59;;;;;;;19.50;10.43;;;10.40;99.90;;;;;;5028267;28;20048;-68
2022/02/20 05:43:05;;;;;;;25.77;10.07;;;10.40;99.90;;;;;;5028765;28;20064;-68
2022/02/20 05:46:11;;;;;;;19.75;8.70;;;10.50;99.90;;;;;;5027459;28;20037;-68
2022/02/20 05:49:16;;;;;;;20.00;9.25;;;10.60;99.90;;;;;;5028520;28;20041;-68
2022/02/20 05:52:27;;;;;;;16.85;8.05;;;10.60;99.90;;;;;;5016919;28;20040;-68
2022/02/20 05:55:31;;;;;;;24.25;9.15;;;10.70;99.90;;;;;;5028917;28;20068;-68
2022/02/20 05:58:36;;;;;;;17.25;8.30;;;10.80;99.90;;;;;;5028506;28;20511;-69
2022/02/20 06:01:40;;;;;;;15.93;8.32;;;10.80;99.90;;;;;;5028509;28;20069;-68
2022/02/20 06:04:52;;;;;;;19.25;8.98;;;10.90;99.90;;;;;;5028570;28;20049;-68
2022/02/20 06:08:09;;;;;;;21.90;9.57;;;10.90;99.90;;;;;;5028167;28;20539;-69
2022/02/20 06:11:45;;;;;;;13.88;7.88;;;10.90;99.90;;;;;;5028990;28;20052;-68
2022/02/20 06:15:09;;;;;;;16.95;9.20;;;11.00;99.90;;;;;;5029580;28;20048;-68
2022/02/20 06:18:33;;;;;;;24.90;9.52;;;11.00;99.90;;;;;;5028403;28;20049;-69
2022/02/20 06:21:56;;;;;;;21.60;8.30;;;11.10;99.90;;;;;;5029319;28;20053;-69
2022/02/20 06:25:23;;;;;;;19.52;8.45;;;11.00;99.90;;;;;;5028662;28;20056;-69
2022/02/20 06:28:34;;;;;;;18.95;8.00;;;10.80;99.90;;;;;;5031658;28;20121;-69
2022/02/20 06:31:40;;;;;;;19.13;8.93;;;10.80;99.90;;;;;;5031674;28;20049;-68
2022/02/20 06:34:45;;;;;;;19.25;8.50;;;10.70;99.90;;;;;;5031700;28;20057;-68
2022/02/20 06:37:50;;;;;;;17.20;8.15;;;10.60;99.90;;;;;;5032159;28;20048;-68
2022/02/20 06:40:55;;;;;;;30.75;13.30;;;10.60;99.90;;;;;;5031825;28;20096;-68
2022/02/20 06:44:07;;;;;;;20.45;10.55;;;10.60;99.90;;;;;;5031833;28;20526;-69
2022/02/20 06:47:30;;;;;;;21.35;8.90;;;11.60;99.90;;;;;;5032670;28;20049;-68
2022/02/20 06:50:57;;;;;;;13.63;7.82;;;13.00;99.90;;;;;;5031688;28;20036;-68
2022/02/20 06:54:21;;;;;;;17.00;7.43;;;14.30;99.90;;;;;;5031670;28;20508;-67
2022/02/20 06:57:39;;;;;;;10.95;5.82;;;15.90;99.90;;;;;;5031573;28;20041;-66
2022/02/20 07:00:42;;;;;;;12.90;5.80;;;17.50;99.90;;;;;;5032553;28;20048;-66
2022/02/20 07:03:46;;;;;;;9.60;4.25;;;18.50;99.90;;;;;;5032177;28;20057;-66
2022/02/20 07:06:51;;;;;;;10.25;4.60;;;19.30;99.90;;;;;;5032385;28;20658;-68
2022/02/20 07:09:54;;;;;;;12.45;5.05;;;20.00;99.90;;;;;;5031803;28;20156;-68
2022/02/20 07:12:58;;;;;;;14.05;5.90;;;20.20;99.90;;;;;;5032033;28;20511;-66
2022/02/20 07:16:02;;;;;;;10.57;5.20;;;21.10;99.90;;;;;;5032145;28;20391;-67
2022/02/20 07:19:06;;;;;;;9.82;4.60;;;22.30;99.90;;;;;;5031822;28;20072;-67
2022/02/20 07:22:11;;;;;;;9.07;4.82;;;23.00;99.90;;;;;;5032301;28;20040;-67
2022/02/20 07:25:15;;;;;;;9.05;4.55;;;23.30;99.90;;;;;;5031979;28;20384;-67
2022/02/20 07:28:18;;;;;;;9.52;4.25;;;23.60;99.90;;;;;;5031540;28;20528;-67
2022/02/20 07:31:26;;;;;;;9.65;4.10;;;24.10;99.90;;;;;;5031023;28;20116;-67
2022/02/20 07:34:30;;;;;;;9.75;3.95;;;24.40;99.90;;;;;;5032024;28;20523;-67
2022/02/20 07:37:34;;;;;;;8.95;3.90;;;25.30;99.90;;;;;;5031300;28;20384;-67
2022/02/20 07:40:38;;;;;;;8.90;4.47;;;26.00;99.40;;;;;;5031961;28;20048;-67
2022/02/20 07:43:44;;;;;;;11.43;3.88;;;26.80;98.50;;;;;;5032681;28;20052;-67
2022/02/20 07:46:47;;;;;;;11.90;4.15;;;27.00;97.10;;;;;;5032242;28;20041;-67
2022/02/20 07:49:51;;;;;;;7.93;3.97;;;26.80;96.50;;;;;;5031287;28;20044;-67
2022/02/20 07:52:57;;;;;;;9.73;4.57;;;27.30;95.70;;;;;;5031811;28;20047;-67
2022/02/20 07:56:01;;;;;;;9.43;3.78;;;27.30;95.60;;;;;;5031448;28;20055;-67
2022/02/20 07:59:05;;;;;;;10.45;4.32;;;27.70;95.40;;;;;;5030829;28;20327;-67
2022/02/20 08:02:09;;;;;;;7.10;3.50;;;28.30;94.60;;;;;;5031214;28;20443;-67
2022/02/20 08:05:13;;;;;;;11.05;4.63;;;28.30;93.60;;;;;;5031358;28;20053;-66
2022/02/20 08:08:18;;;;;;;13.63;7.32;;;28.20;93.10;;;;;;5031011;28;20064;-67
2022/02/20 08:11:22;;;;;;;11.38;5.72;;;28.10;92.40;;;;;;5030939;28;20049;-67
2022/02/20 08:14:25;;;;;;;11.32;5.07;;;27.60;92.40;;;;;;5030967;28;20040;-67
2022/02/20 08:17:29;;;;;;;9.23;5.15;;;27.70;92.20;;;;;;5031319;28;20049;-68
2022/02/20 08:20:33;;;;;;;15.90;7.28;;;27.60;92.10;;;;;;5031230;28;20044;-67
2022/02/20 08:23:37;;;;;;;12.10;7.68;;;27.70;92.20;;;;;;5031132;28;20044;-67
2022/02/20 08:26:42;;;;;;;13.15;7.38;;;28.40;91.80;;;;;;5031026;28;20048;-67
2022/02/20 08:29:46;;;;;;;16.67;6.13;;;28.90;90.80;;;;;;5029790;28;20052;-67
2022/02/20 08:32:50;;;;;;;12.07;6.00;;;29.80;90.40;;;;;;5030214;28;20061;-67
2022/02/20 08:35:54;;;;;;;16.25;5.95;;;30.20;90.30;;;;;;5031201;28;20392;-67
2022/02/20 08:38:58;;;;;;;10.32;4.65;;;30.70;89.60;;;;;;5031055;28;20607;-68
2022/02/20 08:42:02;;;;;;;13.30;5.68;;;31.90;87.70;;;;;;5029763;28;20056;-67
2022/02/20 08:45:07;;;;;;;11.95;4.20;;;30.20;85.50;;;;;;5030419;28;20559;-67
2022/02/20 08:48:11;;;;;;;10.52;4.20;;;30.60;86.00;;;;;;5030125;28;20052;-67
2022/02/20 08:51:16;;;;;;;9.25;4.30;;;30.60;85.90;;;;;;5030326;28;20077;-67
2022/02/20 08:54:21;;;;;;;7.63;3.40;;;28.70;87.00;;;;;;5030098;28;20045;-67
2022/02/20 08:57:25;;;;;;;9.75;3.40;;;30.40;87.10;;;;;;5030013;28;20040;-68
2022/02/20 09:00:29;;;;;;;10.95;3.75;;;30.80;84.10;;;;;;5030104;28;20040;-67
2022/02/20 09:03:33;;;;;;;11.38;3.88;;;31.90;83.90;;;;;;5030075;28;20056;-67
2022/02/20 09:06:37;;;;;;;7.13;2.88;;;31.40;82.60;;;;;;5029907;28;20053;-67
2022/02/20 09:09:41;;;;;;;7.68;3.05;;;32.60;82.60;;;;;;5029994;28;20044;-67
2022/02/20 09:12:45;;;;;;;5.32;2.83;;;34.10;80.30;;;;;;5029799;28;20048;-68
2022/02/20 09:15:49;;;;;;;7.93;3.40;;;33.90;76.90;;;;;;5029982;28;20044;-67
2022/02/20 09:18:56;;;;;;;6.72;3.00;;;31.70;78.20;;;;;;5029551;28;20109;-67
2022/02/20 09:22:00;;;;;;;7.45;3.17;;;28.90;80.50;;;;;;5029603;28;20049;-67
2022/02/20 09:25:04;;;;;;;8.80;2.92;;;28.60;82.40;;;;;;5030143;28;20045;-67
2022/02/20 09:28:08;;;;;;;8.40;3.90;;;29.10;83.00;;;;;;5029581;28;20399;-67
2022/02/20 09:31:12;;;;;;;9.45;3.92;;;27.50;82.10;;;;;;5029697;28;20515;-67
2022/02/20 09:34:16;;;;;;;8.93;3.28;;;24.80;87.10;;;;;;5028938;28;20048;-67
2022/02/20 09:37:20;;;;;;;9.05;3.22;;;25.60;86.50;;;;;;5029549;28;20048;-67
2022/02/20 09:40:25;;;;;;;11.98;3.78;;;25.30;86.60;;;;;;5029331;28;20049;-66
2022/02/20 09:43:28;;;;;;;8.68;3.10;;;26.40;86.30;;;;;;5029927;28;20052;-67
2022/02/20 09:46:32;;;;;;;6.82;3.25;;;27.30;85.10;;;;;;5028731;28;20048;-67
2022/02/20 09:49:37;;;;;;;9.40;3.35;;;29.10;83.00;;;;;;5029693;28;20085;-67
2022/02/20 09:52:41;;;;;;;9.32;3.03;;;30.50;80.70;;;;;;5029296;28;20045;-67
2022/02/20 09:55:47;;;;;;;6.95;2.92;;;32.40;77.50;;;;;;5029724;28;20499;-67
2022/02/20 09:58:50;;;;;;;10.35;4.03;;;31.70;76.10;;;;;;5029697;28;20372;-67
2022/02/20 10:02:13;;;;;;;6.57;3.72;;;31.40;78.80;;;;;;5031997;28;20514;-67
2022/02/20 10:05:20;;;;;;;8.13;3.45;;;33.60;74.90;;;;;;5033599;28;20048;-66
2022/02/20 10:08:24;;;;;;;11.10;3.95;;;35.20;73.40;;;;;;5033190;28;20048;-67
2022/02/20 10:11:31;;;;;;;8.27;3.65;;;30.30;74.00;;;;;;5033638;28;20045;-67
2022/02/20 10:14:35;;;;;;;9.10;3.55;;;31.00;77.00;;;;;;5032185;28;20041;-66
2022/02/20 10:17:39;;;;;;;7.57;3.60;;;31.50;74.20;;;;;;5032894;28;20151;-67
2022/02/20 10:21:03;;;;;;;7.93;3.50;;;30.80;74.30;;;;;;5033158;28;20053;-66
2022/02/20 10:24:31;;;;;;;10.02;3.17;;;30.90;74.40;;;;;;5033452;28;20052;-66
2022/02/20 10:27:55;;;;;;;46.17;41.13;;;29.70;74.10;;;;;;5032655;28;20052;-67
2022/02/20 10:31:09;;;;;;;6.03;2.97;;;33.10;73.50;;;;;;5033110;28;20060;-67
2022/02/20 10:34:17;;;;;;;5.75;2.60;;;33.70;69.20;;;;;;5032318;28;20243;-66
2022/02/20 10:37:32;;;;;;;5.00;3.08;;;32.30;69.90;;;;;;5033134;28;20049;-66
2022/02/20 10:40:37;;;;;;;18.83;16.92;;;34.60;69.00;;;;;;5033074;28;20048;-66
2022/02/20 10:43:42;;;;;;;5.32;3.03;;;33.00;68.50;;;;;;5033095;28;20040;-68
2022/02/20 10:46:46;;;;;;;6.85;2.25;;;32.10;70.90;;;;;;5032740;28;20049;-68
2022/02/20 10:49:50;;;;;;;5.97;2.35;;;32.40;70.10;;;;;;5032536;28;20045;-67
2022/02/20 10:53:05;;;;;;;4.75;2.33;;;33.90;69.00;;;;;;5032599;28;20052;-67
2022/02/20 10:56:10;;;;;;;4.97;2.08;;;36.60;66.70;;;;;;5031879;28;20036;-66
2022/02/20 10:59:14;;;;;;;6.00;2.13;;;33.00;63.80;;;;;;5032100;28;20044;-67
2022/02/20 11:02:19;;;;;;;7.22;2.20;;;27.50;68.60;;;;;;5032185;28;20048;-67
2022/02/20 11:05:24;;;;;;;7.38;2.20;;;26.90;71.60;;;;;;5032891;28;20061;-66
2022/02/20 11:08:29;;;;;;;5.60;2.53;;;27.40;72.10;;;;;;5030698;28;20052;-67
2022/02/20 11:11:36;;;;;;;6.88;2.13;;;31.00;70.20;;;;;;5031917;28;20064;-67
2022/02/20 11:14:43;;;;;;;8.68;2.28;;;33.50;67.90;;;;;;5032170;28;20403;-67
2022/02/20 11:17:50;;;;;;;4.10;2.00;;;35.60;66.70;;;;;;5031167;28;20041;-68
2022/02/20 11:20:55;;;;;;;4.30;1.77;;;37.50;65.20;;;;;;5032098;28;20052;-67
2022/02/20 11:24:01;;;;;;;4.75;1.85;;;38.40;62.90;;;;;;5031997;28;20048;-68
2022/02/20 11:27:05;;;;;;;6.40;1.75;;;39.30;61.10;;;;;;5032107;28;20052;-68
2022/02/20 11:30:11;;;;;;;5.28;2.10;;;40.50;59.50;;;;;;5031568;28;20052;-68
2022/02/20 11:33:16;;;;;;;5.35;1.90;;;39.60;57.70;;;;;;5032401;28;20044;-68
2022/02/20 11:36:24;;;;;;;5.22;2.40;;;36.10;60.00;;;;;;5031128;28;20125;-67
2022/02/20 11:39:28;;;;;;;5.68;2.50;;;32.00;62.90;;;;;;5031181;28;20404;-67
2022/02/20 11:42:34;;;;;;;12.75;4.63;;;29.30;67.70;;;;;;5031590;28;20044;-66
2022/02/20 11:46:08;;;;;;;10.90;4.72;;;27.20;70.10;;;;;;5031458;28;20060;-66
2022/02/20 11:49:16;;;;;;;15.10;5.95;;;25.90;73.00;;;;;;5031139;28;20048;-67
2022/02/20 11:52:20;;;;;;;6.47;2.42;;;25.60;74.70;;;;;;5031287;28;20056;-67
2022/02/20 11:55:31;;;;;;;14.75;6.38;;;28.20;71.20;;;;;;5031546;28;20045;-67
2022/02/20 11:58:40;;;;;;;9.45;5.13;;;30.80;67.30;;;;;;5032214;28;20040;-67
2022/02/20 12:02:06;;;;;;;4.90;2.22;;;30.90;66.70;;;;;;5020023;28;20515;-68
2022/02/20 12:05:10;;;;;;;8.13;2.50;;;33.80;64.10;;;;;;5031386;28;20040;-67
2022/02/20 12:08:33;;;;;;;7.93;4.13;;;36.10;61.10;;;;;;5030057;28;20076;-68
2022/02/20 12:11:45;;;;;;;7.72;2.45;;;37.30;59.40;;;;;;5031464;28;20488;-67
2022/02/20 12:15:27;;;;;;;9.65;2.10;;;36.60;59.00;;;;;;5030798;28;20036;-67
2022/02/20 12:18:33;;;;;;;7.60;1.92;;;32.60;60.70;;;;;;5030300;28;20057;-67
2022/02/20 12:21:57;;;;;;;7.10;2.70;;;29.20;64.90;;;;;;5030687;28;20044;-67
2022/02/20 12:25:02;;;;;;;6.28;2.30;;;27.60;68.20;;;;;;5030328;28;20045;-67
2022/02/20 12:28:08;;;;;;;7.85;2.00;;;28.70;68.00;;;;;;5030015;28;20044;-67
2022/02/20 12:31:12;;;;;;;7.82;2.05;;;31.50;63.90;;;;;;5030881;28;20040;-67
2022/02/20 12:34:43;;;;;;;7.68;1.95;;;34.20;61.50;;;;;;5030905;28;20036;-67
2022/02/20 12:37:53;;;;;;;4.70;2.00;;;35.70;59.90;;;;;;5030716;28;20056;-68
2022/02/20 12:40:57;;;;;;;4.13;1.70;;;36.90;58.70;;;;;;5030822;28;20068;-68
2022/02/20 12:44:01;;;;;;;6.45;2.13;;;37.60;57.50;;;;;;5030695;28;20276;-67
2022/02/20 12:47:05;;;;;;;5.38;1.92;;;38.10;57.00;;;;;;5029979;28;20052;-68
2022/02/20 12:50:12;;;;;;;5.78;1.77;;;38.00;56.20;;;;;;5030114;28;20503;-67
2022/02/20 12:53:18;;;;;;;5.32;1.90;;;36.60;57.70;;;;;;5030704;28;20041;-67
2022/02/20 12:56:23;;;;;;;6.40;1.98;;;35.20;58.70;;;;;;5030659;28;20061;-67
2022/02/20 12:59:28;;;;;;;3.20;1.75;;;35.50;57.10;;;;;;5029804;28;20048;-67
2022/02/20 13:02:45;;;;;;;6.18;2.53;;;35.80;56.20;;;;;;5030503;28;20044;-67
2022/02/20 13:05:51;;;;;;;6.88;2.20;;;34.00;55.80;;;;;;5030848;28;20044;-66
2022/02/20 13:08:58;;;;;;;6.00;2.10;;;30.30;57.20;;;;;;5031262;28;20495;-66
2022/02/20 13:12:19;;;;;;;4.60;1.80;;;29.70;60.40;;;;;;5030229;28;20036;-67
2022/02/20 13:15:25;;;;;;;6.47;2.25;;;32.00;59.90;;;;;;5030514;28;20044;-67
2022/02/20 13:18:31;;;;;;;5.55;2.30;;;33.00;59.10;;;;;;5029530;28;20056;-66
2022/02/20 13:21:35;;;;;;;8.00;3.25;;;31.40;60.40;;;;;;5030592;28;20044;-67
2022/02/20 13:24:57;;;;;;;17.25;9.75;;;29.30;62.00;;;;;;5030254;28;20045;-66
2022/02/20 13:28:01;;;;;;;12.75;7.30;;;27.30;64.90;;;;;;5030120;28;20405;-67
2022/02/20 13:31:24;;;;;;;8.07;4.15;;;25.80;66.80;;;;;;5030070;28;20048;-68
2022/02/20 13:34:28;;;;;;;9.38;5.32;;;24.80;69.60;;;;;;5029967;28;20511;-67
2022/02/20 13:37:32;;;;;;;8.63;3.72;;;24.20;70.30;;;;;;5033717;28;20040;-67
2022/02/20 13:40:38;;;;;;;7.00;2.72;;;25.80;68.00;;;;;;5034103;28;20044;-65
2022/02/20 13:43:52;;;;;;;7.50;2.83;;;28.50;64.40;;;;;;5033821;28;20432;-66
2022/02/20 13:47:11;;;;;;;5.07;2.65;;;30.20;63.80;;;;;;5034384;28;20396;-66
2022/02/20 13:50:19;;;;;;;8.57;3.03;;;31.10;62.30;;;;;;5033701;28;20503;-67
2022/02/20 13:53:23;;;;;;;6.30;2.60;;;31.00;62.00;;;;;;5034306;28;20040;-67
2022/02/20 13:56:52;;;;;;;8.98;2.97;;;31.60;62.20;;;;;;5033919;28;20049;-66
2022/02/20 13:59:57;;;;;;;8.93;3.47;;;32.20;61.70;;;;;;5032601;28;20052;-67
2022/02/20 14:03:03;;;;;;;7.80;2.92;;;32.00;61.00;;;;;;5033484;28;20040;-67
2022/02/20 14:06:08;;;;;;;7.65;3.30;;;31.70;61.20;;;;;;5033433;28;20040;-68
2022/02/20 14:09:13;;;;;;;7.97;3.80;;;31.50;61.60;;;;;;5033040;28;20041;-67
2022/02/20 14:12:39;;;;;;;7.55;2.90;;;31.30;62.00;;;;;;5033978;28;20479;-67
2022/02/20 14:15:43;;;;;;;7.72;2.90;;;31.10;61.40;;;;;;5034098;28;20052;-67
2022/02/20 14:18:49;;;;;;;9.82;2.88;;;30.90;61.30;;;;;;5033223;28;20048;-66
2022/02/20 14:21:55;;;;;;;6.03;2.70;;;31.00;62.10;;;;;;5034387;28;20052;-66
2022/02/20 14:24:59;;;;;;;6.25;2.55;;;31.10;60.80;;;;;;5034632;28;20044;-66
2022/02/20 14:28:05;;;;;;;10.65;2.72;;;31.10;61.40;;;;;;5033060;28;20392;-66
2022/02/20 14:31:11;;;;;;;7.15;2.50;;;31.10;60.90;;;;;;5033297;28;20036;-66
2022/02/20 14:34:19;;;;;;;5.97;2.63;;;30.90;60.80;;;;;;5032568;28;20392;-66
2022/02/20 14:37:37;;;;;;;5.97;3.42;;;30.70;61.00;;;;;;5032695;28;20052;-66
2022/02/20 14:40:42;;;;;;;7.68;3.80;;;31.00;60.80;;;;;;5033321;28;20048;-67
2022/02/20 14:43:49;;;;;;;5.88;3.70;;;31.20;60.50;;;;;;5032018;28;20055;-67
2022/02/20 14:46:53;;;;;;;5.45;2.17;;;31.40;60.90;;;;;;5033100;28;20045;-67
2022/02/20 14:49:57;;;;;;;5.38;2.13;;;31.00;60.80;;;;;;5033329;28;20495;-67
2022/02/20 14:53:02;;;;;;;5.75;2.28;;;30.70;60.80;;;;;;5033049;28;20396;-67
2022/02/20 14:56:06;;;;;;;4.15;2.22;;;29.80;61.30;;;;;;5033775;28;20052;-67
2022/02/20 14:59:10;;;;;;;3.25;2.28;;;29.70;61.20;;;;;;5032736;28;20060;-66
2022/02/20 15:02:15;;;;;;;12.32;9.55;;;29.40;60.90;;;;;;5033035;28;20045;-67
2022/02/20 15:05:19;;;;;;;6.50;2.60;;;29.70;61.30;;;;;;5032606;28;20044;-67
2022/02/20 15:08:23;;;;;;;5.00;2.08;;;29.80;61.90;;;;;;5032794;28;20060;-67
2022/02/20 15:11:32;;;;;;;7.13;2.92;;;29.30;61.10;;;;;;5032292;28;20056;-66
2022/02/20 15:14:36;;;;;;;6.28;3.20;;;28.80;61.80;;;;;;5033612;28;20036;-67
2022/02/20 15:17:41;;;;;;;8.45;3.58;;;28.50;62.20;;;;;;5032612;28;20068;-67
2022/02/20 15:20:48;;;;;;;7.32;3.70;;;28.40;61.90;;;;;;5032861;28;20044;-67
2022/02/20 15:23:52;;;;;;;6.93;3.78;;;28.20;62.60;;;;;;5032885;28;20044;-67
2022/02/20 15:26:56;;;;;;;7.88;3.70;;;28.20;62.50;;;;;;5032820;28;20396;-67
2022/02/20 15:30:01;;;;;;;11.07;6.93;;;28.00;62.50;;;;;;5031539;28;20048;-67
2022/02/20 15:33:06;;;;;;;8.73;3.25;;;27.80;62.70;;;;;;5031803;28;20409;-67
2022/02/20 15:36:11;;;;;;;9.85;2.85;;;27.10;63.00;;;;;;5032387;28;20057;-66
2022/02/20 15:39:15;;;;;;;5.38;2.50;;;26.40;64.00;;;;;;5031979;28;20069;-67
2022/02/20 15:42:19;;;;;;;6.22;2.85;;;25.90;64.70;;;;;;5032261;28;20048;-66
2022/02/20 15:45:23;;;;;;;6.95;2.72;;;25.60;65.30;;;;;;5031646;28;20040;-69
2022/02/20 15:48:28;;;;;;;7.15;3.25;;;25.40;65.70;;;;;;5031670;28;20040;-68
2022/02/20 15:51:32;;;;;;;7.78;2.55;;;25.00;66.00;;;;;;5031855;28;20061;-69
2022/02/20 15:54:36;;;;;;;7.20;3.47;;;24.70;66.40;;;;;;5031791;28;20044;-69
2022/02/20 15:57:41;;;;;;;6.13;3.65;;;24.20;67.20;;;;;;5031952;28;20036;-69
2022/02/20 16:00:45;;;;;;;9.98;5.75;;;23.80;68.60;;;;;;5031286;28;20120;-69
2022/02/20 16:03:49;;;;;;;9.10;3.60;;;23.30;69.40;;;;;;5031401;28;20507;-68
2022/02/20 16:06:54;;;;;;;8.30;3.90;;;22.80;70.50;;;;;;5031613;28;20052;-69